Time;durP1;ratioP1;P1;durP2;ratioP2;P2;SDS_P1;SDS_P2;PMS_P1;PMS_P2;Temp;Humidity;BMP_temperature;BMP_pressure;BME280_temperature;BME280_humidity;BME280_pressure;Samples;Min_cycle;Max_cycle;Signal;HPM_P1;HPM_P2
2022/09/27 00:02:07;;;;;;;;;;;23.70;99.90;;;;;;5047216;28;19909;-55
2022/09/27 00:04:33;;;;;;;;;;;23.70;99.90;;;;;;5044482;28;19909;-55
2022/09/27 00:06:59;;;;;;;;;;;23.70;99.90;;;;;;5035524;28;20311;-54
2022/09/27 00:09:24;;;;;;;;;;;23.70;99.90;;;;;;5036898;28;20365;-54
2022/09/27 00:11:50;;;;;;;;;;;23.80;99.90;;;;;;5034807;28;19905;-53
2022/09/27 00:14:16;;;;;;;;;;;23.70;99.90;;;;;;5032130;28;19909;-55
2022/09/27 00:16:43;;;;;;;;;;;23.80;99.90;;;;;;5033946;28;20430;-57
2022/09/27 00:19:13;;;;;;;;;;;23.80;99.90;;;;;;5034024;28;19916;-56
2022/09/27 00:21:38;;;;;;;;;;;23.80;99.90;;;;;;5038978;28;19940;-54
2022/09/27 00:24:04;;;;;;;;;;;23.80;99.90;;;;;;5040031;28;19909;-55
2022/09/27 00:26:30;;;;;;;;;;;23.80;99.90;;;;;;5037611;28;19919;-54
2022/09/27 00:28:55;;;;;;;;;;;23.80;99.90;;;;;;5038979;28;19913;-56
2022/09/27 00:31:22;;;;;;;;;;;23.80;99.90;;;;;;5035411;28;19909;-56
2022/09/27 00:33:49;;;;;;;;;;;23.80;99.90;;;;;;5039795;28;19915;-57
2022/09/27 00:36:15;;;;;;;;;;;23.80;99.90;;;;;;5040480;28;19913;-57
2022/09/27 00:38:41;;;;;;;;;;;23.80;99.90;;;;;;5051296;28;19916;-53
2022/09/27 00:41:12;;;;;;;;;;;23.80;99.90;;;;;;5032507;28;19920;-57
2022/09/27 00:43:51;;;;;;;;;;;23.80;99.90;;;;;;5032169;28;19974;-56
2022/09/27 00:46:38;;;;;;;;;;;23.80;99.90;;;;;;5032360;28;19912;-55
2022/09/27 00:49:13;;;;;;;;;;;23.80;99.90;;;;;;5036708;28;19909;-57
2022/09/27 00:51:40;;;;;;;;;;;23.70;99.90;;;;;;5037517;28;20276;-55
2022/09/27 00:54:06;;;;;;;;;;;23.70;99.90;;;;;;5043948;28;19905;-57
2022/09/27 00:56:32;;;;;;;;;;;23.70;99.90;;;;;;5032128;28;19951;-58
2022/09/27 00:59:05;;;;;;;;;;;23.70;99.90;;;;;;5032257;28;19958;-59
2022/09/27 01:01:31;;;;;;;;;;;23.70;99.90;;;;;;5032176;28;20312;-59
2022/09/27 01:04:05;;;;;;;;;;;23.70;99.90;;;;;;5032173;28;19912;-56
2022/09/27 01:06:31;;;;;;;;;;;23.70;99.90;;;;;;5035211;28;20089;-57
2022/09/27 01:08:57;;;;;;;;;;;23.70;99.90;;;;;;5032293;28;19944;-58
2022/09/27 01:11:31;;;;;;;;;;;23.60;99.90;;;;;;5033096;28;19908;-57
2022/09/27 01:14:03;;;;;;;;;;;23.60;99.90;;;;;;5037199;28;19916;-58
2022/09/27 01:16:38;;;;;;;;;;;23.60;99.90;;;;;;5045495;28;19905;-61
2022/09/27 01:19:22;;;;;;;;;;;23.60;99.90;;;;;;5031802;28;19923;-64
2022/09/27 01:21:54;;;;;;;;;;;23.60;99.90;;;;;;5031343;28;19945;-59
2022/09/27 01:24:26;;;;;;;;;;;23.60;99.90;;;;;;5031656;28;19909;-58
2022/09/27 01:27:14;;;;;;;;;;;23.60;99.90;;;;;;5043818;28;19943;-54
2022/09/27 01:29:46;;;;;;;;;;;23.60;99.90;;;;;;5043298;28;19995;-59
2022/09/27 01:32:17;;;;;;;;;;;23.60;99.90;;;;;;5050212;28;20329;-59
2022/09/27 01:35:04;;;;;;;;;;;23.60;99.90;;;;;;5050119;28;19905;-59
2022/09/27 01:37:30;;;;;;;;;;;23.60;99.90;;;;;;5049803;28;20003;-59
2022/09/27 01:39:56;;;;;;;;;;;23.50;99.90;;;;;;5049945;28;20329;-54
2022/09/27 01:42:21;;;;;;;;;;;23.50;99.90;;;;;;5041437;28;19917;-55
2022/09/27 01:44:50;;;;;;;;;;;23.50;99.90;;;;;;5031185;28;20198;-57
2022/09/27 01:47:18;;;;;;;;;;;23.40;99.90;;;;;;5039199;28;20007;-57
2022/09/27 01:49:43;;;;;;;;;;;23.30;99.90;;;;;;5031394;28;19905;-57
2022/09/27 01:52:11;;;;;;;;;;;23.30;99.90;;;;;;5036000;28;19915;-56
2022/09/27 01:54:44;;;;;;;;;;;23.30;99.90;;;;;;5031781;28;20276;-56
2022/09/27 01:57:12;;;;;;;;;;;23.30;99.90;;;;;;5051233;28;19979;-56
2022/09/27 01:59:50;;;;;;;;;;;23.30;99.90;;;;;;5031481;28;19913;-56
2022/09/27 02:02:16;;;;;;;;;;;23.30;99.90;;;;;;5030621;28;20315;-56
2022/09/27 02:04:43;;;;;;;;;;;23.30;99.90;;;;;;5031283;28;19959;-55
2022/09/27 02:07:15;;;;;;;;;;;23.30;99.90;;;;;;5031100;28;20008;-55
2022/09/27 02:09:46;;;;;;;;;;;23.30;99.90;;;;;;5031281;28;19976;-55
2022/09/27 02:12:14;;;;;;;;;;;23.30;99.90;;;;;;5031535;28;19912;-55
2022/09/27 02:14:43;;;;;;;;;;;23.30;99.90;;;;;;5030293;28;19917;-56
2022/09/27 02:17:19;;;;;;;;;;;23.40;99.90;;;;;;5030445;28;20345;-55
2022/09/27 02:19:53;;;;;;;;;;;23.40;99.90;;;;;;5029140;28;19920;-56
2022/09/27 02:22:22;;;;;;;;;;;23.40;99.90;;;;;;5039852;28;19916;-55
2022/09/27 02:25:06;;;;;;;;;;;23.40;99.90;;;;;;5043120;28;20422;-55
2022/09/27 02:27:39;;;;;;;;;;;23.40;99.90;;;;;;5043214;28;20021;-55
2022/09/27 02:30:12;;;;;;;;;;;23.40;99.90;;;;;;5034423;28;19992;-55
2022/09/27 02:32:38;;;;;;;;;;;23.50;99.90;;;;;;5037688;28;19905;-55
2022/09/27 02:35:14;;;;;;;;;;;23.50;99.90;;;;;;5030941;28;19959;-56
2022/09/27 02:37:39;;;;;;;;;;;23.50;99.90;;;;;;5030834;28;19905;-55
2022/09/27 02:40:05;;;;;;;;;;;23.60;99.90;;;;;;5044755;28;19913;-55
2022/09/27 02:42:32;;;;;;;;;;;23.60;99.90;;;;;;5031244;28;19928;-56
2022/09/27 02:44:57;;;;;;;;;;;23.60;99.90;;;;;;5031098;28;19902;-55
2022/09/27 02:47:32;;;;;;;;;;;23.60;99.90;;;;;;5031039;28;19912;-56
2022/09/27 02:50:13;;;;;;;;;;;23.70;99.90;;;;;;5031031;28;19927;-55
2022/09/27 02:52:47;;;;;;;;;;;23.70;99.90;;;;;;5030944;28;19905;-55
2022/09/27 02:55:26;;;;;;;;;;;23.70;99.90;;;;;;5029607;28;19909;-56
2022/09/27 02:58:00;;;;;;;;;;;23.70;99.90;;;;;;5029469;28;19955;-55
2022/09/27 03:00:30;;;;;;;;;;;23.70;99.90;;;;;;5031537;28;20305;-55
2022/09/27 03:02:58;;;;;;;;;;;23.70;99.90;;;;;;5031766;28;19912;-56
2022/09/27 03:05:26;;;;;;;;;;;23.70;99.90;;;;;;5034742;28;19917;-56
2022/09/27 03:07:52;;;;;;;;;;;23.70;99.90;;;;;;5034618;28;19905;-55
2022/09/27 03:10:19;;;;;;;;;;;23.70;99.90;;;;;;5034542;28;19905;-56
2022/09/27 03:12:45;;;;;;;;;;;23.70;99.90;;;;;;5034462;28;19921;-55
2022/09/27 03:15:10;;;;;;;;;;;23.70;99.90;;;;;;5034471;28;20269;-55
2022/09/27 03:17:36;;;;;;;;;;;23.70;99.90;;;;;;5034445;28;20043;-55
2022/09/27 03:20:01;;;;;;;;;;;23.70;99.90;;;;;;5034498;28;20012;-55
2022/09/27 03:22:27;;;;;;;;;;;23.70;99.90;;;;;;5034315;28;20338;-56
2022/09/27 03:24:53;;;;;;;;;;;23.80;99.90;;;;;;5034217;28;19905;-55
2022/09/27 03:27:18;;;;;;;;;;;23.80;99.90;;;;;;5034091;28;19967;-56
2022/09/27 03:29:44;;;;;;;;;;;23.80;99.90;;;;;;5032893;28;19905;-56
2022/09/27 03:32:09;;;;;;;;;;;23.80;99.90;;;;;;5034101;28;19971;-56
2022/09/27 03:34:35;;;;;;;;;;;23.80;99.90;;;;;;5033986;28;20046;-56
2022/09/27 03:37:01;;;;;;;;;;;23.80;99.90;;;;;;5033919;28;20000;-55
2022/09/27 03:39:26;;;;;;;;;;;23.80;99.90;;;;;;5033680;28;19924;-55
2022/09/27 03:41:52;;;;;;;;;;;23.80;99.90;;;;;;5033698;28;19954;-55
2022/09/27 03:44:18;;;;;;;;;;;23.80;99.90;;;;;;5033917;28;19909;-55
2022/09/27 03:46:44;;;;;;;;;;;23.80;99.90;;;;;;5033644;28;19905;-54
2022/09/27 03:49:09;;;;;;;;;;;23.80;99.90;;;;;;5033770;28;19905;-55
2022/09/27 03:51:35;;;;;;;;;;;23.80;99.90;;;;;;5034078;28;20345;-55
2022/09/27 03:54:01;;;;;;;;;;;23.80;99.90;;;;;;5033899;28;20002;-55
2022/09/27 03:56:26;;;;;;;;;;;23.80;99.90;;;;;;5033651;28;19924;-55
2022/09/27 03:58:52;;;;;;;;;;;23.80;99.90;;;;;;5033795;28;19911;-54
2022/09/27 04:01:17;;;;;;;;;;;23.80;99.90;;;;;;5034726;28;20222;-55
2022/09/27 04:03:44;;;;;;;;;;;23.80;99.90;;;;;;5033558;28;19927;-54
2022/09/27 04:06:10;;;;;;;;;;;23.90;99.90;;;;;;5033413;28;20357;-55
2022/09/27 04:08:35;;;;;;;;;;;23.80;99.90;;;;;;5033587;28;19912;-54
2022/09/27 04:11:02;;;;;;;;;;;23.80;99.90;;;;;;5033478;28;19909;-54
2022/09/27 04:13:28;;;;;;;;;;;23.90;99.90;;;;;;5033179;28;19913;-55
2022/09/27 04:15:53;;;;;;;;;;;23.90;99.90;;;;;;5031882;28;19909;-53
2022/09/27 04:18:19;;;;;;;;;;;23.90;99.90;;;;;;5033121;28;19929;-54
2022/09/27 04:20:45;;;;;;;;;;;23.90;99.90;;;;;;5033060;28;19960;-56
2022/09/27 04:23:10;;;;;;;;;;;23.90;99.90;;;;;;5033007;28;19905;-53
2022/09/27 04:25:36;;;;;;;;;;;23.90;99.90;;;;;;5033181;28;19912;-54
2022/09/27 04:28:01;;;;;;;;;;;23.80;99.90;;;;;;5032937;28;19905;-54
2022/09/27 04:30:28;;;;;;;;;;;23.80;99.90;;;;;;5032904;28;20364;-54
2022/09/27 04:32:53;;;;;;;;;;;23.80;99.90;;;;;;5033036;28;19997;-53
2022/09/27 04:38:03;;;;;;;;;;;23.80;99.90;;;;;;5032842;28;19920;-53
2022/09/27 04:40:28;;;;;;;;;;;23.80;99.90;;;;;;5032600;28;19917;-54
2022/09/27 04:42:55;;;;;;;;;;;23.70;99.90;;;;;;5032714;28;20265;-54
2022/09/27 04:45:21;;;;;;;;;;;23.70;99.90;;;;;;5032700;28;19905;-54
2022/09/27 04:47:47;;;;;;;;;;;23.70;99.90;;;;;;5032547;28;19912;-54
2022/09/27 04:50:13;;;;;;;;;;;23.70;99.90;;;;;;5032634;28;19909;-54
2022/09/27 04:52:39;;;;;;;;;;;23.70;99.90;;;;;;5031353;28;20286;-55
2022/09/27 04:55:05;;;;;;;;;;;23.70;99.90;;;;;;5032758;28;19905;-55
2022/09/27 04:57:30;;;;;;;;;;;23.70;99.90;;;;;;5032489;28;19912;-55
2022/09/27 04:59:59;;;;;;;;;;;23.70;99.90;;;;;;5032439;28;19917;-55
2022/09/27 05:02:25;;;;;;;;;;;23.70;99.90;;;;;;5032543;28;19911;-57
2022/09/27 05:04:51;;;;;;;;;;;23.70;99.90;;;;;;5032457;28;19959;-55
2022/09/27 05:07:17;;;;;;;;;;;23.70;99.90;;;;;;5032267;28;19913;-55
2022/09/27 05:09:43;;;;;;;;;;;23.70;99.90;;;;;;5032169;28;19911;-55
2022/09/27 05:12:09;;;;;;;;;;;23.70;99.90;;;;;;5032390;28;19905;-55
2022/09/27 05:14:34;;;;;;;;;;;23.60;99.90;;;;;;5032061;28;19912;-54
2022/09/27 05:17:00;;;;;;;;;;;23.60;99.90;;;;;;5032187;28;20336;-54
2022/09/27 05:19:26;;;;;;;;;;;23.60;99.90;;;;;;5032129;28;20440;-55
2022/09/27 05:21:51;;;;;;;;;;;23.70;99.90;;;;;;5032018;28;20376;-55
2022/09/27 05:24:17;;;;;;;;;;;23.70;99.90;;;;;;5032128;28;19905;-55
2022/09/27 05:26:44;;;;;;;;;;;23.70;99.90;;;;;;5031511;28;19905;-55
2022/09/27 05:29:10;;;;;;;;;;;23.70;99.90;;;;;;5031947;28;19944;-55
2022/09/27 05:31:35;;;;;;;;;;;23.70;99.90;;;;;;5031951;28;19963;-55
2022/09/27 05:34:01;;;;;;;;;;;23.70;99.90;;;;;;5031733;28;19951;-55
2022/09/27 05:36:27;;;;;;;;;;;23.70;99.90;;;;;;5031802;28;20007;-55
2022/09/27 05:38:53;;;;;;;;;;;23.70;99.90;;;;;;5031655;28;19917;-55
2022/09/27 05:41:18;;;;;;;;;;;23.70;99.90;;;;;;5031542;28;19913;-55
2022/09/27 05:43:45;;;;;;;;;;;23.70;99.90;;;;;;5031745;28;19905;-55
2022/09/27 05:46:10;;;;;;;;;;;23.60;99.90;;;;;;5032045;28;19996;-55
2022/09/27 05:48:37;;;;;;;;;;;23.60;99.90;;;;;;5031655;28;20379;-55
2022/09/27 05:51:02;;;;;;;;;;;23.50;99.90;;;;;;5031612;28;20364;-55
2022/09/27 05:53:28;;;;;;;;;;;23.50;99.90;;;;;;5031682;28;19912;-56
2022/09/27 05:55:54;;;;;;;;;;;23.50;99.90;;;;;;5031549;28;19905;-56
2022/09/27 05:58:19;;;;;;;;;;;23.50;99.90;;;;;;5031620;28;19909;-56
2022/09/27 06:00:45;;;;;;;;;;;23.50;99.90;;;;;;5031338;28;20308;-56
2022/09/27 06:03:12;;;;;;;;;;;23.40;99.90;;;;;;5031697;28;19997;-56
2022/09/27 06:05:38;;;;;;;;;;;23.40;99.90;;;;;;5031630;28;20015;-56
2022/09/27 06:08:05;;;;;;;;;;;23.30;99.90;;;;;;5031589;28;19909;-56
2022/09/27 06:10:31;;;;;;;;;;;23.30;99.90;;;;;;5031513;28;20051;-56
2022/09/27 06:13:01;;;;;;;;;;;23.20;99.90;;;;;;5031299;28;20000;-55
2022/09/27 06:15:27;;;;;;;;;;;23.20;99.90;;;;;;5030038;28;19959;-55
2022/09/27 06:17:53;;;;;;;;;;;23.10;99.90;;;;;;5031240;28;19905;-55
2022/09/27 06:20:19;;;;;;;;;;;23.10;99.90;;;;;;5031126;28;19920;-56
2022/09/27 06:22:45;;;;;;;;;;;23.10;99.90;;;;;;5031231;28;19905;-56
2022/09/27 06:25:11;;;;;;;;;;;23.00;99.90;;;;;;5031547;28;19944;-55
2022/09/27 06:27:36;;;;;;;;;;;23.00;99.90;;;;;;5031273;28;19929;-56
2022/09/27 06:30:03;;;;;;;;;;;23.00;99.90;;;;;;5031325;28;19912;-56
2022/09/27 06:32:28;;;;;;;;;;;23.00;99.90;;;;;;5031365;28;20254;-56
2022/09/27 06:34:54;;;;;;;;;;;23.00;99.90;;;;;;5031184;28;19928;-56
2022/09/27 06:37:24;;;;;;;;;;;23.00;99.90;;;;;;5031232;28;19912;-56
2022/09/27 06:39:51;;;;;;;;;;;23.00;99.90;;;;;;5034661;28;19917;-56
2022/09/27 06:42:17;;;;;;;;;;;23.00;99.90;;;;;;5034985;28;19905;-56
2022/09/27 06:44:42;;;;;;;;;;;23.00;99.90;;;;;;5034995;28;19911;-56
2022/09/27 06:47:08;;;;;;;;;;;23.00;99.90;;;;;;5034675;28;20349;-56
2022/09/27 06:49:33;;;;;;;;;;;23.00;99.90;;;;;;5034645;28;19905;-56
2022/09/27 06:51:59;;;;;;;;;;;23.00;99.90;;;;;;5034411;28;20003;-56
2022/09/27 06:54:25;;;;;;;;;;;23.10;99.90;;;;;;5034605;28;19980;-56
2022/09/27 06:56:50;;;;;;;;;;;23.10;99.90;;;;;;5034678;28;19932;-56
2022/09/27 07:02:00;;;;;;;;;;;23.10;99.90;;;;;;5034638;28;19911;-56
2022/09/27 07:04:26;;;;;;;;;;;23.10;99.90;;;;;;5034423;28;19904;-56
2022/09/27 07:06:52;;;;;;;;;;;23.20;99.90;;;;;;5034366;28;19905;-56
2022/09/27 07:09:18;;;;;;;;;;;23.20;99.90;;;;;;5034348;28;19916;-56
2022/09/27 07:11:43;;;;;;;;;;;23.20;99.90;;;;;;5034488;28;19905;-56
2022/09/27 07:14:09;;;;;;;;;;;23.20;99.90;;;;;;5034032;28;19974;-56
2022/09/27 07:16:35;;;;;;;;;;;23.30;99.90;;;;;;5034400;28;19912;-56
2022/09/27 07:19:01;;;;;;;;;;;23.30;99.90;;;;;;5034006;28;19999;-57
2022/09/27 07:21:26;;;;;;;;;;;23.30;99.90;;;;;;5033948;28;19912;-56
2022/09/27 07:23:52;;;;;;;;;;;23.30;99.90;;;;;;5032850;28;20268;-56
2022/09/27 07:26:18;;;;;;;;;;;23.30;99.90;;;;;;5032638;28;19905;-56
2022/09/27 07:28:44;;;;;;;;;;;23.40;99.90;;;;;;5034213;28;20079;-57
2022/09/27 07:31:10;;;;;;;;;;;23.40;99.90;;;;;;5033845;28;20016;-56
2022/09/27 07:33:36;;;;;;;;;;;23.40;99.90;;;;;;5034018;28;20300;-56
2022/09/27 07:36:08;;;;;;;;;;;23.50;99.90;;;;;;5033832;28;19909;-57
2022/09/27 07:38:34;;;;;;;;;;;23.50;99.90;;;;;;5032266;28;19917;-56
2022/09/27 07:41:08;;;;;;;;;;;23.60;99.90;;;;;;5033716;28;20254;-57
2022/09/27 07:43:33;;;;;;;;;;;23.60;99.90;;;;;;5033660;28;19905;-56
2022/09/27 07:45:59;;;;;;;;;;;23.70;99.90;;;;;;5034013;28;19959;-56
2022/09/27 07:48:24;;;;;;;;;;;23.70;99.90;;;;;;5033173;28;19959;-56
2022/09/27 07:50:51;;;;;;;;;;;23.70;99.90;;;;;;5033453;28;20411;-57
2022/09/27 07:53:17;;;;;;;;;;;23.80;99.90;;;;;;5033791;28;19905;-56
2022/09/27 07:55:42;;;;;;;;;;;23.80;99.90;;;;;;5033541;28;19912;-56
2022/09/27 07:58:09;;;;;;;;;;;23.80;99.90;;;;;;5033420;28;20272;-57
2022/09/27 08:00:36;;;;;;;;;;;23.90;99.90;;;;;;5033431;28;19913;-57
2022/09/27 08:03:05;;;;;;;;;;;23.90;99.90;;;;;;5033451;28;19909;-56
2022/09/27 08:05:32;;;;;;;;;;;23.90;99.90;;;;;;5033512;28;19984;-57
2022/09/27 08:07:58;;;;;;;;;;;23.90;99.90;;;;;;5032988;28;19951;-56
2022/09/27 08:10:29;;;;;;;;;;;23.90;99.90;;;;;;5033141;28;20362;-56
2022/09/27 08:12:55;;;;;;;;;;;24.00;99.90;;;;;;5033354;28;19951;-56
2022/09/27 08:15:20;;;;;;;;;;;24.10;99.90;;;;;;5065005;28;19908;-57
2022/09/27 08:17:46;;;;;;;;;;;24.10;99.90;;;;;;5033294;28;19912;-56
2022/09/27 08:20:13;;;;;;;;;;;24.10;99.90;;;;;;5032921;28;19920;-56
2022/09/27 08:22:42;;;;;;;;;;;24.10;99.90;;;;;;5033001;28;19991;-56
2022/09/27 08:25:08;;;;;;;;;;;24.20;99.90;;;;;;5033093;28;19904;-57
2022/09/27 08:27:33;;;;;;;;;;;24.20;99.90;;;;;;5032932;28;19959;-59
2022/09/27 08:29:59;;;;;;;;;;;24.30;99.90;;;;;;5032842;28;20347;-57
2022/09/27 08:32:25;;;;;;;;;;;24.30;99.90;;;;;;5032713;28;19968;-56
2022/09/27 08:34:50;;;;;;;;;;;24.30;99.90;;;;;;5031584;28;20315;-56
2022/09/27 08:37:16;;;;;;;;;;;24.30;99.90;;;;;;5031432;28;19936;-56
2022/09/27 08:39:41;;;;;;;;;;;24.30;99.90;;;;;;5032520;28;19974;-57
2022/09/27 08:42:13;;;;;;;;;;;24.40;99.90;;;;;;5032676;28;20387;-56
2022/09/27 08:44:39;;;;;;;;;;;24.40;99.90;;;;;;5032560;28;19909;-56
2022/09/27 08:47:07;;;;;;;;;;;24.40;99.90;;;;;;5032395;28;19905;-56
2022/09/27 08:49:41;;;;;;;;;;;24.50;99.90;;;;;;5032532;28;20481;-56
2022/09/27 08:52:11;;;;;;;;;;;24.50;99.90;;;;;;5031115;28;19912;-57
2022/09/27 08:54:38;;;;;;;;;;;24.60;99.90;;;;;;5032342;28;20413;-56
2022/09/27 08:57:07;;;;;;;;;;;24.60;99.90;;;;;;5032290;28;19995;-57
2022/09/27 08:59:36;;;;;;;;;;;24.60;99.90;;;;;;5032227;28;19913;-56
2022/09/27 09:02:03;;;;;;;;;;;24.70;99.90;;;;;;5031396;28;19959;-57
2022/09/27 09:04:34;;;;;;;;;;;24.70;99.90;;;;;;5031932;28;19905;-57
2022/09/27 09:07:03;;;;;;;;;;;24.70;99.90;;;;;;5030633;28;19968;-56
2022/09/27 09:09:28;;;;;;;;;;;24.80;99.90;;;;;;5030681;28;20066;-57
2022/09/27 09:12:58;;;;;;;;;;;24.80;99.90;;;;;;5031953;28;19991;-57
2022/09/27 09:15:05;;;;;;;;;;;24.80;99.90;;;;;;5034759;28;19905;-56
2022/09/27 09:17:46;;;;;;;;;;;24.90;99.90;;;;;;5032322;28;20269;-57
2022/09/27 09:20:20;;;;;;;;;;;24.90;99.90;;;;;;5031999;28;19939;-57
2022/09/27 09:23:05;;;;;;;;;;;25.00;99.90;;;;;;5032121;28;19905;-56
2022/09/27 09:25:57;;;;;;;;;;;25.00;99.90;;;;;;5031909;28;20283;-56
2022/09/27 09:28:31;;;;;;;;;;;25.00;99.90;;;;;;5030777;28;19955;-56
2022/09/27 09:31:06;;;;;;;;;;;25.10;99.90;;;;;;5031755;28;20004;-57
2022/09/27 09:33:44;;;;;;;;;;;25.10;99.90;;;;;;5031803;28;19933;-56
2022/09/27 09:36:16;;;;;;;;;;;25.20;99.90;;;;;;5031830;28;19905;-57
2022/09/27 09:38:51;;;;;;;;;;;25.20;99.90;;;;;;5030246;28;19944;-56
2022/09/27 09:41:33;;;;;;;;;;;25.30;99.90;;;;;;5031629;28;19913;-56
2022/09/27 09:44:19;;;;;;;;;;;25.30;99.90;;;;;;5031732;28;19909;-56
2022/09/27 09:46:46;;;;;;;;;;;25.30;99.90;;;;;;5030699;28;19955;-55
2022/09/27 09:49:34;;;;;;;;;;;25.40;99.90;;;;;;5031390;28;20302;-55
2022/09/27 09:52:11;;;;;;;;;;;25.40;99.90;;;;;;5031427;28;19909;-55
2022/09/27 09:54:43;;;;;;;;;;;25.40;99.90;;;;;;5031448;28;19944;-56
2022/09/27 09:57:12;;;;;;;;;;;25.50;99.90;;;;;;5031431;28;19905;-57
2022/09/27 09:59:42;;;;;;;;;;;25.50;99.90;;;;;;5031434;28;19919;-57
2022/09/27 10:02:27;;;;;;;;;;;25.50;99.90;;;;;;5031559;28;19912;-56
2022/09/27 10:04:52;;;;;;;;;;;25.50;99.90;;;;;;5031638;28;19951;-56
2022/09/27 10:07:20;;;;;;;;;;;25.60;99.90;;;;;;5031320;28;20264;-57
2022/09/27 10:09:46;;;;;;;;;;;25.60;99.90;;;;;;5031503;28;19905;-56
2022/09/27 10:12:11;;;;;;;;;;;25.70;99.90;;;;;;5032744;28;19967;-56
2022/09/27 10:14:37;;;;;;;;;;;25.70;99.90;;;;;;5035371;28;19905;-57
2022/09/27 10:17:05;;;;;;;;;;;25.70;99.90;;;;;;5035309;28;20311;-56
2022/09/27 10:19:32;;;;;;;;;;;25.80;99.90;;;;;;5035164;28;20345;-56
2022/09/27 10:22:02;;;;;;;;;;;25.80;99.90;;;;;;5033936;28;19905;-57
2022/09/27 10:24:28;;;;;;;;;;;25.80;99.90;;;;;;5017553;28;20273;-56
2022/09/27 10:26:58;;;;;;;;;;;25.80;99.90;;;;;;5035420;28;19901;-57
2022/09/27 10:29:34;;;;;;;;;;;25.80;99.90;;;;;;5035422;28;20347;-57
2022/09/27 10:32:02;;;;;;;;;;;25.90;99.90;;;;;;5035174;28;19909;-56
2022/09/27 10:34:34;;;;;;;;;;;25.90;99.90;;;;;;5035185;28;19905;-56
2022/09/27 10:37:21;;;;;;;;;;;25.90;99.90;;;;;;5035103;28;20386;-56
2022/09/27 10:39:47;;;;;;;;;;;25.90;99.90;;;;;;5034540;28;19924;-56
2022/09/27 10:42:20;;;;;;;;;;;26.00;99.90;;;;;;5033978;28;19931;-56
2022/09/27 10:44:46;;;;;;;;;;;26.00;99.90;;;;;;5045468;28;19905;-56
2022/09/27 10:47:15;;;;;;;;;;;26.10;99.90;;;;;;5034710;28;20300;-56
2022/09/27 10:49:40;;;;;;;;;;;26.10;99.90;;;;;;5046611;28;19924;-57
2022/09/27 10:52:15;;;;;;;;;;;26.20;99.90;;;;;;5047950;28;19909;-56
2022/09/27 10:54:41;;;;;;;;;;;26.20;99.90;;;;;;5052732;28;19958;-55
2022/09/27 10:57:13;;;;;;;;;;;26.30;99.90;;;;;;5052070;28;20416;-55
2022/09/27 10:59:39;;;;;;;;;;;26.30;99.90;;;;;;5053657;28;19944;-55
2022/09/27 11:02:15;;;;;;;;;;;26.40;99.90;;;;;;5035559;28;19905;-55
2022/09/27 11:04:40;;;;;;;;;;;26.50;99.90;;;;;;5040755;28;19908;-56
2022/09/27 11:07:17;;;;;;;;;;;26.50;99.90;;;;;;5049960;28;19911;-56
2022/09/27 11:09:47;;;;;;;;;;;26.60;99.90;;;;;;5050666;28;19911;-56
2022/09/27 11:12:13;;;;;;;;;;;26.60;99.90;;;;;;5050407;28;20250;-55
2022/09/27 11:14:40;;;;;;;;;;;26.70;99.90;;;;;;5053533;28;19950;-56
2022/09/27 11:17:15;;;;;;;;;;;26.70;99.90;;;;;;5052481;28;19967;-56
2022/09/27 11:19:43;;;;;;;;;;;26.70;99.90;;;;;;5051121;28;20349;-56
2022/09/27 11:22:26;;;;;;;;;;;26.70;99.90;;;;;;5050763;28;19988;-57
2022/09/27 11:25:04;;;;;;;;;;;26.80;99.90;;;;;;5042744;28;19915;-57
2022/09/27 11:27:30;;;;;;;;;;;26.80;99.90;;;;;;5052890;28;19909;-56
2022/09/27 11:30:02;;;;;;;;;;;26.80;99.90;;;;;;5052942;28;19962;-55
2022/09/27 11:32:34;;;;;;;;;;;26.80;99.90;;;;;;5054107;28;19900;-56
2022/09/27 11:35:06;;;;;;;;;;;26.90;99.90;;;;;;5052197;28;19904;-56
2022/09/27 11:37:31;;;;;;;;;;;26.80;99.90;;;;;;5048366;28;19909;-56
2022/09/27 11:40:03;;;;;;;;;;;26.90;99.90;;;;;;5053296;28;19923;-56
2022/09/27 11:42:41;;;;;;;;;;;26.80;99.90;;;;;;5053063;28;19920;-58
2022/09/27 11:45:30;;;;;;;;;;;26.90;99.90;;;;;;5053799;28;19944;-55
2022/09/27 11:47:56;;;;;;;;;;;26.90;99.90;;;;;;5053764;28;20003;-55
2022/09/27 11:50:21;;;;;;;;;;;26.90;99.90;;;;;;5052849;28;20007;-55
2022/09/27 11:52:47;;;;;;;;;;;27.00;99.90;;;;;;5042022;28;20372;-55
2022/09/27 11:55:13;;;;;;;;;;;27.10;99.90;;;;;;5044490;28;20027;-56
2022/09/27 11:57:44;;;;;;;;;;;27.10;99.90;;;;;;5050944;28;19958;-54
2022/09/27 12:00:23;;;;;;;;;;;27.20;99.90;;;;;;5051941;28;19970;-54
2022/09/27 12:03:04;;;;;;;;;;;27.30;99.90;;;;;;5053012;28;20316;-55
2022/09/27 12:05:46;;;;;;;;;;;27.30;99.90;;;;;;5040377;28;19905;-57
2022/09/27 12:08:21;;;;;;;;;;;27.30;99.90;;;;;;5042658;28;20415;-54
2022/09/27 12:10:51;;;;;;;;;;;27.20;99.90;;;;;;5036352;28;19913;-54
2022/09/27 12:13:25;;;;;;;;;;;27.20;99.90;;;;;;5037751;28;19954;-55
2022/09/27 12:15:50;;;;;;;;;;;27.10;99.90;;;;;;5032405;28;20343;-54
2022/09/27 12:18:28;;;;;;;;;;;27.10;99.90;;;;;;5032188;28;19984;-55
2022/09/27 12:20:54;;;;;;;;;;;27.00;99.90;;;;;;5034182;28;19936;-54
2022/09/27 12:23:33;;;;;;;;;;;27.00;99.90;;;;;;5032328;28;20345;-53
2022/09/27 12:26:02;;;;;;;;;;;27.00;99.90;;;;;;5032126;28;19966;-53
2022/09/27 12:28:32;;;;;;;;;;;27.10;99.90;;;;;;5032324;28;19905;-55
2022/09/27 12:31:01;;;;;;;;;;;27.20;99.90;;;;;;5032267;28;19951;-53
2022/09/27 12:33:30;;;;;;;;;;;27.20;99.90;;;;;;5031616;28;19905;-54
2022/09/27 12:35:58;;;;;;;;;;;27.20;99.90;;;;;;5031866;28;19905;-55
2022/09/27 12:38:40;;;;;;;;;;;27.20;99.90;;;;;;5033015;28;19946;-54
2022/09/27 12:41:07;;;;;;;;;;;27.20;99.90;;;;;;5032086;28;20004;-54
2022/09/27 12:43:34;;;;;;;;;;;27.20;99.90;;;;;;5037034;28;19905;-54
2022/09/27 12:46:09;;;;;;;;;;;27.20;99.90;;;;;;5039155;28;20427;-55
2022/09/27 12:48:53;;;;;;;;;;;27.20;99.90;;;;;;5031544;28;20328;-54
2022/09/27 12:51:20;;;;;;;;;;;27.20;99.90;;;;;;5036019;28;19982;-54
2022/09/27 12:53:45;;;;;;;;;;;27.30;99.90;;;;;;5031649;28;19905;-53
2022/09/27 12:56:11;;;;;;;;;;;27.40;99.90;;;;;;5031243;28;19927;-53
2022/09/27 12:58:36;;;;;;;;;;;27.40;99.90;;;;;;5031471;28;19974;-54
2022/09/27 13:01:05;;;;;;;;;;;27.40;99.90;;;;;;5033046;28;19994;-53
2022/09/27 13:03:40;;;;;;;;;;;27.40;99.90;;;;;;5037581;28;19905;-53
2022/09/27 13:06:25;;;;;;;;;;;27.40;99.90;;;;;;5039578;28;19958;-53
2022/09/27 13:09:26;;;;;;;;;;;27.40;99.90;;;;;;5026856;28;19940;-54
2022/09/27 13:12:12;;;;;;;;;;;27.40;99.90;;;;;;5044667;28;19912;-54
2022/09/27 13:14:49;;;;;;;;;;;27.50;99.90;;;;;;5032540;28;20051;-57
2022/09/27 13:17:51;;;;;;;;;;;27.50;99.90;;;;;;5031709;28;19947;-58
2022/09/27 13:20:26;;;;;;;;;;;27.50;99.90;;;;;;5042467;28;19913;-58
2022/09/27 13:22:52;;;;;;;;;;;27.50;99.90;;;;;;5034182;28;19905;-57
2022/09/27 13:25:38;;;;;;;;;;;27.60;99.90;;;;;;5031781;28;19948;-57
2022/09/27 13:28:24;;;;;;;;;;;27.60;99.90;;;;;;5031457;28;19909;-59
2022/09/27 13:30:49;;;;;;;;;;;27.60;99.90;;;;;;5039580;28;19959;-57
2022/09/27 13:33:15;;;;;;;;;;;27.50;99.90;;;;;;5044551;28;20343;-57
2022/09/27 13:35:42;;;;;;;;;;;27.50;99.90;;;;;;5031478;28;19905;-57
2022/09/27 13:38:20;;;;;;;;;;;27.50;99.90;;;;;;5036057;28;20054;-56
2022/09/27 13:40:46;;;;;;;;;;;27.50;99.90;;;;;;5048588;28;19960;-61
2022/09/27 13:43:12;;;;;;;;;;;27.50;99.90;;;;;;5050738;28;19944;-56
2022/09/27 13:45:40;;;;;;;;;;;27.40;99.90;;;;;;5039938;28;19905;-56
2022/09/27 13:48:13;;;;;;;;;;;27.40;99.90;;;;;;5029070;28;19959;-56
2022/09/27 13:50:50;;;;;;;;;;;27.40;99.90;;;;;;5030301;28;19909;-57
2022/09/27 13:53:17;;;;;;;;;;;27.40;99.90;;;;;;5030084;28;19913;-55
2022/09/27 13:55:42;;;;;;;;;;;27.40;99.90;;;;;;5030471;28;19905;-57
2022/09/27 13:58:23;;;;;;;;;;;27.50;99.90;;;;;;5030191;28;20305;-57
2022/09/27 14:00:53;;;;;;;;;;;27.50;99.90;;;;;;5033038;28;19913;-57
2022/09/27 14:03:34;;;;;;;;;;;27.50;99.90;;;;;;5043277;28;19904;-58
2022/09/27 14:06:02;;;;;;;;;;;27.50;99.90;;;;;;5050648;28;20284;-57
2022/09/27 14:08:28;;;;;;;;;;;27.50;99.90;;;;;;5049988;28;20365;-57
2022/09/27 14:10:54;;;;;;;;;;;27.50;99.90;;;;;;5049971;28;20022;-57
2022/09/27 14:13:21;;;;;;;;;;;27.50;99.90;;;;;;5051033;28;20402;-57
2022/09/27 14:15:47;;;;;;;;;;;27.40;99.90;;;;;;5051136;28;19930;-57
2022/09/27 14:18:13;;;;;;;;;;;27.40;99.90;;;;;;5049990;28;19909;-57
2022/09/27 14:20:41;;;;;;;;;;;27.40;99.90;;;;;;5050881;28;19913;-57
2022/09/27 14:23:17;;;;;;;;;;;27.30;99.90;;;;;;5051029;28;19958;-56
2022/09/27 14:25:45;;;;;;;;;;;27.30;99.90;;;;;;5050772;28;19905;-57
2022/09/27 14:28:21;;;;;;;;;;;27.30;99.90;;;;;;5051035;28;20004;-56
2022/09/27 14:30:47;;;;;;;;;;;27.30;99.90;;;;;;5050927;28;19955;-57
2022/09/27 14:33:30;;;;;;;;;;;27.30;99.90;;;;;;5050574;28;19997;-57
2022/09/27 14:38:40;;;;;;;;;;;27.30;99.90;;;;;;5050823;28;19955;-56